sensor_id;sensor_type;location;lat;lon;timestamp;pressure;altitude;pressure_sealevel;temperature;humidity
63204;BME280;49297;43.210;27.914;2022-07-04T00:00:29;101288.34;;;26.10;53.56
63204;BME280;49297;43.210;27.914;2022-07-04T00:02:56;101277.94;;;26.07;53.19
63204;BME280;49297;43.210;27.914;2022-07-04T00:05:22;101281.47;;;26.07;53.27
63204;BME280;49297;43.210;27.914;2022-07-04T00:07:48;101280.66;;;26.07;53.29
63204;BME280;49297;43.210;27.914;2022-07-04T00:10:17;101285.63;;;26.10;53.39
63204;BME280;49297;43.210;27.914;2022-07-04T00:12:44;101291.50;;;26.07;53.55
63204;BME280;49297;43.210;27.914;2022-07-04T00:15:10;101287.09;;;26.06;53.57
63204;BME280;49297;43.210;27.914;2022-07-04T00:17:37;101283.56;;;26.05;53.40
63204;BME280;49297;43.210;27.914;2022-07-04T00:20:04;101282.53;;;26.06;53.22
63204;BME280;49297;43.210;27.914;2022-07-04T00:22:30;101282.97;;;26.03;53.29
63204;BME280;49297;43.210;27.914;2022-07-04T00:24:56;101280.03;;;26.05;53.47
63204;BME280;49297;43.210;27.914;2022-07-04T00:27:22;101278.16;;;26.05;53.55
63204;BME280;49297;43.210;27.914;2022-07-04T00:29:48;101277.56;;;26.03;53.45
63204;BME280;49297;43.210;27.914;2022-07-04T00:32:13;101271.31;;;26.02;53.69
63204;BME280;49297;43.210;27.914;2022-07-04T00:34:39;101273.41;;;26.00;53.81
63204;BME280;49297;43.210;27.914;2022-07-04T00:37:05;101268.81;;;26.01;53.46
63204;BME280;49297;43.210;27.914;2022-07-04T00:39:31;101267.38;;;25.98;53.62
63204;BME280;49297;43.210;27.914;2022-07-04T00:41:57;101260.31;;;25.97;53.75
63204;BME280;49297;43.210;27.914;2022-07-04T00:44:22;101263.03;;;25.97;54.02
63204;BME280;49297;43.210;27.914;2022-07-04T00:46:48;101263.25;;;25.96;53.95
63204;BME280;49297;43.210;27.914;2022-07-04T00:49:16;101264.88;;;25.97;54.08
63204;BME280;49297;43.210;27.914;2022-07-04T00:51:43;101261.81;;;25.93;54.18
63204;BME280;49297;43.210;27.914;2022-07-04T00:54:12;101261.81;;;25.93;54.03
63204;BME280;49297;43.210;27.914;2022-07-04T00:56:41;101263.66;;;25.93;53.90
63204;BME280;49297;43.210;27.914;2022-07-04T00:59:07;101263.06;;;25.91;54.01
63204;BME280;49297;43.210;27.914;2022-07-04T01:01:35;101256.81;;;25.90;54.22
63204;BME280;49297;43.210;27.914;2022-07-04T01:04:02;101261.63;;;25.88;54.02
63204;BME280;49297;43.210;27.914;2022-07-04T01:06:30;101253.03;;;25.91;53.88
63204;BME280;49297;43.210;27.914;2022-07-04T01:08:56;101251.41;;;25.90;53.97
63204;BME280;49297;43.210;27.914;2022-07-04T01:11:22;101258.91;;;25.88;54.24
63204;BME280;49297;43.210;27.914;2022-07-04T01:13:48;101255.38;;;25.88;54.32
63204;BME280;49297;43.210;27.914;2022-07-04T01:16:14;101264.81;;;25.85;54.22
63204;BME280;49297;43.210;27.914;2022-07-04T01:18:40;101254.19;;;25.83;54.11
63204;BME280;49297;43.210;27.914;2022-07-04T01:21:07;101257.09;;;25.82;54.44
63204;BME280;49297;43.210;27.914;2022-07-04T01:23:40;101254.63;;;25.80;54.41
63204;BME280;49297;43.210;27.914;2022-07-04T01:26:06;101255.22;;;25.82;54.53
63204;BME280;49297;43.210;27.914;2022-07-04T01:28:32;101254.84;;;25.79;54.49
63204;BME280;49297;43.210;27.914;2022-07-04T01:30:58;101250.88;;;25.81;54.35
63204;BME280;49297;43.210;27.914;2022-07-04T01:33:24;101258.41;;;25.79;54.32
63204;BME280;49297;43.210;27.914;2022-07-04T01:35:49;101261.56;;;25.76;54.34
63204;BME280;49297;43.210;27.914;2022-07-04T01:38:15;101259.88;;;25.75;54.59
63204;BME280;49297;43.210;27.914;2022-07-04T01:40:41;101269.09;;;25.74;54.11
63204;BME280;49297;43.210;27.914;2022-07-04T01:43:07;101278.50;;;25.72;54.13
63204;BME280;49297;43.210;27.914;2022-07-04T01:45:35;101267.63;;;25.72;54.46
63204;BME280;49297;43.210;27.914;2022-07-04T01:48:09;101269.59;;;25.64;54.38
63204;BME280;49297;43.210;27.914;2022-07-04T01:50:35;101272.69;;;25.68;54.38
63204;BME280;49297;43.210;27.914;2022-07-04T01:53:02;101268.78;;;25.64;54.21
63204;BME280;49297;43.210;27.914;2022-07-04T01:55:29;101262.69;;;25.69;54.27
63204;BME280;49297;43.210;27.914;2022-07-04T01:57:55;101261.47;;;25.64;54.59
63204;BME280;49297;43.210;27.914;2022-07-04T02:00:21;101274.78;;;25.66;54.54
63204;BME280;49297;43.210;27.914;2022-07-04T02:03:06;101277.34;;;25.61;54.42
63204;BME280;49297;43.210;27.914;2022-07-04T02:05:31;101275.06;;;25.58;54.33
63204;BME280;49297;43.210;27.914;2022-07-04T02:07:59;101271.38;;;25.52;54.31
63204;BME280;49297;43.210;27.914;2022-07-04T02:10:25;101265.38;;;25.50;54.08
63204;BME280;49297;43.210;27.914;2022-07-04T02:12:50;101276.66;;;25.47;54.27
63204;BME280;49297;43.210;27.914;2022-07-04T02:15:36;101269.38;;;25.48;54.18
63204;BME280;49297;43.210;27.914;2022-07-04T02:18:05;101276.66;;;25.47;54.15
63204;BME280;49297;43.210;27.914;2022-07-04T02:20:31;101286.06;;;25.44;54.20
63204;BME280;49297;43.210;27.914;2022-07-04T02:22:57;101285.84;;;25.46;54.21
63204;BME280;49297;43.210;27.914;2022-07-04T02:25:23;101285.03;;;25.45;54.23
63204;BME280;49297;43.210;27.914;2022-07-04T02:27:49;101282.53;;;25.44;54.11
63204;BME280;49297;43.210;27.914;2022-07-04T02:30:15;101289.00;;;25.43;54.11
63204;BME280;49297;43.210;27.914;2022-07-04T02:32:41;101291.31;;;25.39;54.25
63204;BME280;49297;43.210;27.914;2022-07-04T02:35:07;101290.72;;;25.37;54.24
63204;BME280;49297;43.210;27.914;2022-07-04T02:37:34;101295.53;;;25.35;53.98
63204;BME280;49297;43.210;27.914;2022-07-04T02:40:00;101291.16;;;25.34;53.87
63204;BME280;49297;43.210;27.914;2022-07-04T02:42:32;101295.09;;;25.38;53.89
63204;BME280;49297;43.210;27.914;2022-07-04T02:44:59;101297.84;;;25.32;53.97
63204;BME280;49297;43.210;27.914;2022-07-04T02:47:24;101287.84;;;25.32;54.45
63204;BME280;49297;43.210;27.914;2022-07-04T02:49:50;101294.94;;;25.33;54.05
63204;BME280;49297;43.210;27.914;2022-07-04T02:52:16;101302.66;;;25.30;54.42
63204;BME280;49297;43.210;27.914;2022-07-04T02:54:42;101303.94;;;25.27;54.25
63204;BME280;49297;43.210;27.914;2022-07-04T02:57:08;101300.78;;;25.23;54.14
63204;BME280;49297;43.210;27.914;2022-07-04T02:59:34;101304.78;;;25.21;54.21
63204;BME280;49297;43.210;27.914;2022-07-04T03:02:00;101305.81;;;25.20;54.05
63204;BME280;49297;43.210;27.914;2022-07-04T03:04:25;101302.31;;;25.19;54.13
63204;BME280;49297;43.210;27.914;2022-07-04T03:06:51;101312.53;;;25.17;54.49
63204;BME280;49297;43.210;27.914;2022-07-04T03:09:17;101307.53;;;25.14;54.27
63204;BME280;49297;43.210;27.914;2022-07-04T03:11:43;101308.97;;;25.17;54.08
63204;BME280;49297;43.210;27.914;2022-07-04T03:14:09;101315.47;;;25.16;54.15
63204;BME280;49297;43.210;27.914;2022-07-04T03:16:35;101318.16;;;25.16;54.27
63204;BME280;49297;43.210;27.914;2022-07-04T03:19:00;101317.34;;;25.15;54.24
63204;BME280;49297;43.210;27.914;2022-07-04T03:21:26;101314.25;;;25.12;54.31
63204;BME280;49297;43.210;27.914;2022-07-04T03:23:52;101306.13;;;25.12;54.09
63204;BME280;49297;43.210;27.914;2022-07-04T03:26:29;101313.41;;;25.11;54.31
63204;BME280;49297;43.210;27.914;2022-07-04T03:28:57;101311.06;;;25.15;54.17
63204;BME280;49297;43.210;27.914;2022-07-04T03:31:24;101317.16;;;25.10;54.47
63204;BME280;49297;43.210;27.914;2022-07-04T03:33:50;101322.75;;;25.15;54.28
63204;BME280;49297;43.210;27.914;2022-07-04T03:36:34;101312.53;;;25.17;54.37
63204;BME280;49297;43.210;27.914;2022-07-04T03:38:59;101316.28;;;25.16;54.53
63204;BME280;49297;43.210;27.914;2022-07-04T03:41:25;101313.19;;;25.13;54.31
63204;BME280;49297;43.210;27.914;2022-07-04T03:43:51;101314.25;;;25.12;54.50
63204;BME280;49297;43.210;27.914;2022-07-04T03:46:17;101314.25;;;25.12;54.17
63204;BME280;49297;43.210;27.914;2022-07-04T03:48:42;101309.44;;;25.14;54.10
63204;BME280;49297;43.210;27.914;2022-07-04T03:51:10;101310.47;;;25.13;54.03
63204;BME280;49297;43.210;27.914;2022-07-04T03:53:36;101310.84;;;25.16;54.12
63204;BME280;49297;43.210;27.914;2022-07-04T03:56:02;101297.31;;;25.16;54.22
63204;BME280;49297;43.210;27.914;2022-07-04T03:58:27;101306.91;;;25.19;54.10
63204;BME280;49297;43.210;27.914;2022-07-04T04:00:55;101310.84;;;25.16;54.07
63204;BME280;49297;43.210;27.914;2022-07-04T04:03:23;101307.31;;;25.16;54.16
63204;BME280;49297;43.210;27.914;2022-07-04T04:06:07;101311.94;;;25.15;53.89
63204;BME280;49297;43.210;27.914;2022-07-04T04:08:33;101307.72;;;25.19;54.06
63204;BME280;49297;43.210;27.914;2022-07-04T04:10:59;101313.13;;;25.19;54.24
63204;BME280;49297;43.210;27.914;2022-07-04T04:13:25;101305.44;;;25.16;54.05
63204;BME280;49297;43.210;27.914;2022-07-04T04:15:51;101308.16;;;25.16;53.93
63204;BME280;49297;43.210;27.914;2022-07-04T04:18:16;101314.38;;;25.17;53.54
63204;BME280;49297;43.210;27.914;2022-07-04T04:20:42;101311.94;;;25.15;53.95
63204;BME280;49297;43.210;27.914;2022-07-04T04:23:08;101306.91;;;25.19;53.65
63204;BME280;49297;43.210;27.914;2022-07-04T04:25:33;101309.34;;;25.20;53.56
63204;BME280;49297;43.210;27.914;2022-07-04T04:27:59;101312.91;;;25.21;53.67
63204;BME280;49297;43.210;27.914;2022-07-04T04:30:25;101309.34;;;25.20;53.75
63204;BME280;49297;43.210;27.914;2022-07-04T04:32:50;101302.91;;;25.21;53.55
63204;BME280;49297;43.210;27.914;2022-07-04T04:35:16;101308.94;;;25.23;53.66
63204;BME280;49297;43.210;27.914;2022-07-04T04:37:42;101301.88;;;25.22;53.79
63204;BME280;49297;43.210;27.914;2022-07-04T04:40:08;101308.53;;;25.26;53.70
63204;BME280;49297;43.210;27.914;2022-07-04T04:42:34;101299.78;;;25.24;53.80
63204;BME280;49297;43.210;27.914;2022-07-04T04:45:01;101300.63;;;25.25;53.61
63204;BME280;49297;43.210;27.914;2022-07-04T04:47:27;101307.69;;;25.26;53.67
63204;BME280;49297;43.210;27.914;2022-07-04T04:49:53;101305.38;;;25.30;53.67
63204;BME280;49297;43.210;27.914;2022-07-04T04:52:21;101301.59;;;25.31;53.69
63204;BME280;49297;43.210;27.914;2022-07-04T04:54:47;101297.84;;;25.32;53.48
63204;BME280;49297;43.210;27.914;2022-07-04T04:57:13;101294.28;;;25.31;53.32
63204;BME280;49297;43.210;27.914;2022-07-04T04:59:38;101296.78;;;25.33;53.63
63204;BME280;49297;43.210;27.914;2022-07-04T05:02:04;101305.53;;;25.35;53.35
63204;BME280;49297;43.210;27.914;2022-07-04T05:04:30;101302.81;;;25.35;53.32
63204;BME280;49297;43.210;27.914;2022-07-04T05:06:56;101304.25;;;25.37;53.41
63204;BME280;49297;43.210;27.914;2022-07-04T05:09:21;101306.38;;;25.35;53.09
63204;BME280;49297;43.210;27.914;2022-07-04T05:11:47;101318.84;;;25.36;52.94
63204;BME280;49297;43.210;27.914;2022-07-04T05:14:13;101321.34;;;25.38;52.70
63204;BME280;49297;43.210;27.914;2022-07-04T05:16:40;101319.50;;;25.38;52.65
63204;BME280;49297;43.210;27.914;2022-07-04T05:19:05;101313.81;;;25.40;52.55
63204;BME280;49297;43.210;27.914;2022-07-04T05:21:32;101311.97;;;25.40;52.82
63204;BME280;49297;43.210;27.914;2022-07-04T05:23:57;101317.16;;;25.42;52.62
63204;BME280;49297;43.210;27.914;2022-07-04T05:26:24;101320.47;;;25.44;52.87
63204;BME280;49297;43.210;27.914;2022-07-04T05:28:50;101315.66;;;25.46;52.39
63204;BME280;49297;43.210;27.914;2022-07-04T05:31:16;101315.66;;;25.46;52.58
63204;BME280;49297;43.210;27.914;2022-07-04T05:33:42;101323.56;;;25.48;52.70
63204;BME280;49297;43.210;27.914;2022-07-04T05:36:08;101314.97;;;25.51;52.67
63204;BME280;49297;43.210;27.914;2022-07-04T05:38:34;101318.31;;;25.53;52.70
63204;BME280;49297;43.210;27.914;2022-07-04T05:41:01;101323.28;;;25.56;52.66
63204;BME280;49297;43.210;27.914;2022-07-04T05:43:26;101315.75;;;25.58;52.64
63204;BME280;49297;43.210;27.914;2022-07-04T05:45:52;101321.16;;;25.58;52.76
63204;BME280;49297;43.210;27.914;2022-07-04T05:48:18;101328.03;;;25.60;52.08
63204;BME280;49297;43.210;27.914;2022-07-04T05:50:45;101322.19;;;25.63;52.15
63204;BME280;49297;43.210;27.914;2022-07-04T05:53:11;101321.94;;;25.65;52.49
63204;BME280;49297;43.210;27.914;2022-07-04T05:55:36;101329.03;;;25.66;52.27
63204;BME280;49297;43.210;27.914;2022-07-04T05:58:02;101325.06;;;25.69;52.32
63204;BME280;49297;43.210;27.914;2022-07-04T06:00:28;101325.88;;;25.69;52.36
63204;BME280;49297;43.210;27.914;2022-07-04T06:02:56;101334.38;;;25.73;52.68
63204;BME280;49297;43.210;27.914;2022-07-04T06:05:21;101339.38;;;25.76;52.39
63204;BME280;49297;43.210;27.914;2022-07-04T06:07:47;101340.56;;;25.80;52.29
63204;BME280;49297;43.210;27.914;2022-07-04T06:10:13;101345.16;;;25.79;52.50
63204;BME280;49297;43.210;27.914;2022-07-04T06:12:39;101346.59;;;25.82;52.70
63204;BME280;49297;43.210;27.914;2022-07-04T06:15:06;101347.19;;;25.84;52.79
63204;BME280;49297;43.210;27.914;2022-07-04T06:17:32;101348.41;;;25.88;52.39
63204;BME280;49297;43.210;27.914;2022-07-04T06:19:57;101354.44;;;25.90;52.44
63204;BME280;49297;43.210;27.914;2022-07-04T06:22:23;101347.75;;;25.93;52.79
63204;BME280;49297;43.210;27.914;2022-07-04T06:24:49;101354.88;;;25.94;52.69
63204;BME280;49297;43.210;27.914;2022-07-04T06:27:15;101347.31;;;25.96;52.75
63204;BME280;49297;43.210;27.914;2022-07-04T06:29:41;101350.41;;;25.99;52.30
63204;BME280;49297;43.210;27.914;2022-07-04T06:32:07;101351.03;;;26.01;52.75
63204;BME280;49297;43.210;27.914;2022-07-04T06:34:32;101341.38;;;26.06;52.28
63204;BME280;49297;43.210;27.914;2022-07-04T06:37:19;101340.09;;;26.08;52.84
63204;BME280;49297;43.210;27.914;2022-07-04T06:39:45;101333.38;;;26.11;52.54
63204;BME280;49297;43.210;27.914;2022-07-04T06:42:11;101334.84;;;26.13;52.42
63204;BME280;49297;43.210;27.914;2022-07-04T06:44:36;101337.28;;;26.15;52.68
63204;BME280;49297;43.210;27.914;2022-07-04T06:47:05;101331.41;;;26.18;52.78
63204;BME280;49297;43.210;27.914;2022-07-04T06:49:30;101327.06;;;26.17;52.11
63204;BME280;49297;43.210;27.914;2022-07-04T06:51:56;101342.06;;;26.19;52.64
63204;BME280;49297;43.210;27.914;2022-07-04T06:54:22;101339.94;;;26.21;52.42
63204;BME280;49297;43.210;27.914;2022-07-04T06:56:48;101332.63;;;26.22;51.95
63204;BME280;49297;43.210;27.914;2022-07-04T06:59:13;101344.09;;;26.24;52.14
63204;BME280;49297;43.210;27.914;2022-07-04T07:01:39;101339.25;;;26.26;52.18
63204;BME280;49297;43.210;27.914;2022-07-04T07:04:05;101345.28;;;26.28;52.06
63204;BME280;49297;43.210;27.914;2022-07-04T07:06:32;101350.28;;;26.31;51.88
63204;BME280;49297;43.210;27.914;2022-07-04T07:08:58;101351.47;;;26.35;51.59
63204;BME280;49297;43.210;27.914;2022-07-04T07:11:23;101351.25;;;26.37;51.48
63204;BME280;49297;43.210;27.914;2022-07-04T07:13:51;101355.16;;;26.41;51.80
63204;BME280;49297;43.210;27.914;2022-07-04T07:16:18;101354.09;;;26.42;51.40
63204;BME280;49297;43.210;27.914;2022-07-04T07:18:44;101349.28;;;26.44;51.51
63204;BME280;49297;43.210;27.914;2022-07-04T07:21:10;101356.13;;;26.47;51.56
63204;BME280;49297;43.210;27.914;2022-07-04T07:23:40;101352.81;;;26.45;51.55
63204;BME280;49297;43.210;27.914;2022-07-04T07:26:07;101346.94;;;26.48;51.56
63204;BME280;49297;43.210;27.914;2022-07-04T07:28:33;101346.47;;;26.51;51.79
63204;BME280;49297;43.210;27.914;2022-07-04T07:30:58;101357.09;;;26.52;51.99
63204;BME280;49297;43.210;27.914;2022-07-04T07:33:25;101355.00;;;26.54;51.82
63204;BME280;49297;43.210;27.914;2022-07-04T07:35:51;101341.16;;;26.56;51.87
63204;BME280;49297;43.210;27.914;2022-07-04T07:38:17;101345.31;;;26.58;51.52
63204;BME280;49297;43.210;27.914;2022-07-04T07:40:43;101345.94;;;26.60;51.91
63204;BME280;49297;43.210;27.914;2022-07-04T07:43:08;101342.78;;;26.64;51.94
63204;BME280;49297;43.210;27.914;2022-07-04T07:45:34;101339.84;;;26.65;51.75
63204;BME280;49297;43.210;27.914;2022-07-04T07:48:00;101337.50;;;26.69;51.79
63204;BME280;49297;43.210;27.914;2022-07-04T07:50:26;101326.06;;;26.67;51.78
63204;BME280;49297;43.210;27.914;2022-07-04T07:52:52;101338.91;;;26.71;51.84
63204;BME280;49297;43.210;27.914;2022-07-04T07:55:17;101333.25;;;26.73;51.69
63204;BME280;49297;43.210;27.914;2022-07-04T07:57:43;101346.38;;;26.76;51.82
63204;BME280;49297;43.210;27.914;2022-07-04T08:00:10;101339.66;;;26.78;51.86
63204;BME280;49297;43.210;27.914;2022-07-04T08:02:37;101336.72;;;26.80;51.82
63204;BME280;49297;43.210;27.914;2022-07-04T08:05:21;101337.31;;;26.82;51.62
63204;BME280;49297;43.210;27.914;2022-07-04T08:07:47;101335.38;;;26.71;51.99
63204;BME280;49297;43.210;27.914;2022-07-04T08:10:13;101340.91;;;26.64;52.59
63204;BME280;49297;43.210;27.914;2022-07-04T08:12:39;101340.31;;;26.62;52.28
63204;BME280;49297;43.210;27.914;2022-07-04T08:15:05;101324.00;;;26.62;52.11
63204;BME280;49297;43.210;27.914;2022-07-04T08:17:31;101322.97;;;26.63;52.18
63204;BME280;49297;43.210;27.914;2022-07-04T08:19:56;101326.28;;;26.65;51.69
63204;BME280;49297;43.210;27.914;2022-07-04T08:22:22;101332.53;;;26.66;52.32
63204;BME280;49297;43.210;27.914;2022-07-04T08:24:48;101334.56;;;26.70;52.46
63204;BME280;49297;43.210;27.914;2022-07-04T08:27:14;101329.94;;;26.71;51.54
63204;BME280;49297;43.210;27.914;2022-07-04T08:29:40;101335.75;;;26.74;51.51
63204;BME280;49297;43.210;27.914;2022-07-04T08:32:05;101338.47;;;26.74;51.77
63204;BME280;49297;43.210;27.914;2022-07-04T08:34:35;101342.00;;;26.75;51.40
63204;BME280;49297;43.210;27.914;2022-07-04T08:37:00;101345.69;;;26.81;51.14
63204;BME280;49297;43.210;27.914;2022-07-04T08:39:26;101346.63;;;26.86;50.65
63204;BME280;49297;43.210;27.914;2022-07-04T08:42:06;101333.94;;;26.68;37.68
63204;BME280;49297;43.210;27.914;2022-07-04T08:44:37;101342.84;;;26.57;43.68
63204;BME280;49297;43.210;27.914;2022-07-04T08:47:07;101337.66;;;26.74;44.78
63204;BME280;49297;43.210;27.914;2022-07-04T08:49:34;101333.47;;;26.71;46.49
63204;BME280;49297;43.210;27.914;2022-07-04T08:52:03;101324.19;;;26.60;40.61
63204;BME280;49297;43.210;27.914;2022-07-04T08:54:31;101330.19;;;26.69;45.08
63204;BME280;49297;43.210;27.914;2022-07-04T08:57:16;101330.59;;;26.85;46.22
63204;BME280;49297;43.210;27.914;2022-07-04T09:00:03;101327.25;;;26.83;44.47
63204;BME280;49297;43.210;27.914;2022-07-04T09:02:29;101331.19;;;26.87;43.78
63204;BME280;49297;43.210;27.914;2022-07-04T09:04:56;101323.88;;;26.87;38.90
63204;BME280;49297;43.210;27.914;2022-07-04T09:07:21;101316.75;;;26.86;41.85
63204;BME280;49297;43.210;27.914;2022-07-04T09:09:48;101316.22;;;26.96;42.89
63204;BME280;49297;43.210;27.914;2022-07-04T09:12:14;101313.13;;;26.92;35.14
63204;BME280;49297;43.210;27.914;2022-07-04T09:14:40;101324.28;;;27.03;42.37
63204;BME280;49297;43.210;27.914;2022-07-04T09:17:06;101331.34;;;27.04;44.10
63204;BME280;49297;43.210;27.914;2022-07-04T09:19:33;101319.78;;;27.08;43.09
63204;BME280;49297;43.210;27.914;2022-07-04T09:22:08;101318.13;;;27.07;41.51
63204;BME280;49297;43.210;27.914;2022-07-04T09:25:04;101314.13;;;27.10;36.73
63204;BME280;49297;43.210;27.914;2022-07-04T09:27:39;101321.56;;;27.14;40.11
63204;BME280;49297;43.210;27.914;2022-07-04T09:30:06;101320.75;;;27.14;37.14
63204;BME280;49297;43.210;27.914;2022-07-04T09:35:00;101318.50;;;27.23;43.13
63204;BME280;49297;43.210;27.914;2022-07-04T09:37:36;101318.66;;;27.28;43.98
63204;BME280;49297;43.210;27.914;2022-07-04T09:40:04;101319.25;;;27.30;44.37
63204;BME280;49297;43.210;27.914;2022-07-04T09:42:38;101319.25;;;27.30;45.11
63204;BME280;49297;43.210;27.914;2022-07-04T09:45:07;101319.50;;;27.28;45.97
63204;BME280;49297;43.210;27.914;2022-07-04T09:47:33;101320.31;;;27.29;46.22
63204;BME280;49297;43.210;27.914;2022-07-04T09:50:04;101320.44;;;27.34;46.28
63204;BME280;49297;43.210;27.914;2022-07-04T09:52:31;101318.91;;;27.38;46.13
63204;BME280;49297;43.210;27.914;2022-07-04T09:55:02;101317.47;;;27.35;45.29
63204;BME280;49297;43.210;27.914;2022-07-04T09:57:32;101322.91;;;27.35;46.20
63204;BME280;49297;43.210;27.914;2022-07-04T10:00:20;101316.44;;;27.37;44.79
63204;BME280;49297;43.210;27.914;2022-07-04T10:02:47;101319.75;;;27.39;47.02
63204;BME280;49297;43.210;27.914;2022-07-04T10:05:20;101326.34;;;27.43;44.31
63204;BME280;49297;43.210;27.914;2022-07-04T10:07:47;101325.53;;;27.42;44.76
63204;BME280;49297;43.210;27.914;2022-07-04T10:10:24;101317.50;;;27.47;46.18
63204;BME280;49297;43.210;27.914;2022-07-04T10:12:52;101324.00;;;27.46;46.12
63204;BME280;49297;43.210;27.914;2022-07-04T10:15:19;101324.94;;;27.52;45.36
63204;BME280;49297;43.210;27.914;2022-07-04T10:17:45;101319.84;;;27.56;46.16
63204;BME280;49297;43.210;27.914;2022-07-04T10:20:12;101324.59;;;27.60;45.61
63204;BME280;49297;43.210;27.914;2022-07-04T10:22:38;101318.47;;;27.65;45.37
63204;BME280;49297;43.210;27.914;2022-07-04T10:25:05;101322.22;;;27.64;45.97
63204;BME280;49297;43.210;27.914;2022-07-04T10:27:33;101326.00;;;27.63;44.95
63204;BME280;49297;43.210;27.914;2022-07-04T10:30:00;101333.22;;;27.69;45.45
63204;BME280;49297;43.210;27.914;2022-07-04T10:32:29;101320.34;;;27.76;45.66
63204;BME280;49297;43.210;27.914;2022-07-04T10:34:55;101322.47;;;27.74;45.25
63204;BME280;49297;43.210;27.914;2022-07-04T10:37:21;101323.28;;;27.75;46.67
63204;BME280;49297;43.210;27.914;2022-07-04T10:39:47;101326.59;;;27.53;47.29
63204;BME280;49297;43.210;27.914;2022-07-04T10:42:25;101326.84;;;27.63;47.04
63204;BME280;49297;43.210;27.914;2022-07-04T10:45:00;101329.44;;;27.70;46.96
63204;BME280;49297;43.210;27.914;2022-07-04T10:47:26;101327.66;;;27.76;46.60
63204;BME280;49297;43.210;27.914;2022-07-04T10:49:56;101328.59;;;27.81;46.11
63204;BME280;49297;43.210;27.914;2022-07-04T10:52:22;101336.03;;;27.86;45.41
63204;BME280;49297;43.210;27.914;2022-07-04T10:54:48;101331.09;;;27.83;46.53
63204;BME280;49297;43.210;27.914;2022-07-04T10:57:22;101329.69;;;27.92;45.54
63204;BME280;49297;43.210;27.914;2022-07-04T11:17:51;101304.69;;;28.07;44.78
63204;BME280;49297;43.210;27.914;2022-07-04T11:20:18;101305.66;;;28.01;44.67
63204;BME280;49297;43.210;27.914;2022-07-04T11:22:44;101298.78;;;28.10;45.36
63204;BME280;49297;43.210;27.914;2022-07-04T11:25:10;101304.91;;;28.17;45.65
63204;BME280;49297;43.210;27.914;2022-07-04T11:27:37;101293.91;;;28.12;46.08
63204;BME280;49297;43.210;27.914;2022-07-04T11:30:04;101294.16;;;28.10;46.51
63204;BME280;49297;43.210;27.914;2022-07-04T11:32:31;101299.13;;;28.02;46.52
63204;BME280;49297;43.210;27.914;2022-07-04T11:34:57;101298.53;;;28.12;46.40
63204;BME280;49297;43.210;27.914;2022-07-04T11:37:23;101289.06;;;28.14;45.87
63204;BME280;49297;43.210;27.914;2022-07-04T11:39:53;101290.31;;;28.23;46.42
63204;BME280;49297;43.210;27.914;2022-07-04T11:42:39;101292.88;;;28.13;46.66
63204;BME280;49297;43.210;27.914;2022-07-04T11:45:24;101289.41;;;28.18;46.56
63204;BME280;49297;43.210;27.914;2022-07-04T11:47:49;101286.88;;;28.28;46.97
63204;BME280;49297;43.210;27.914;2022-07-04T11:50:16;101295.97;;;28.34;46.46
63204;BME280;49297;43.210;27.914;2022-07-04T11:52:46;101281.41;;;28.40;45.25
63204;BME280;49297;43.210;27.914;2022-07-04T11:55:16;101292.00;;;28.24;45.20
63204;BME280;49297;43.210;27.914;2022-07-04T11:57:44;101295.41;;;28.32;44.85
63204;BME280;49297;43.210;27.914;2022-07-04T12:00:22;101296.41;;;28.42;44.17
63204;BME280;49297;43.210;27.914;2022-07-04T12:02:50;101295.19;;;28.50;44.00
63204;BME280;49297;43.210;27.914;2022-07-04T12:05:17;101291.19;;;28.53;43.85
63204;BME280;49297;43.210;27.914;2022-07-04T12:07:47;101284.91;;;28.52;43.08
63204;BME280;49297;43.210;27.914;2022-07-04T12:10:18;101285.34;;;28.61;43.54
63204;BME280;49297;43.210;27.914;2022-07-04T12:13:04;101285.84;;;28.58;44.23
63204;BME280;49297;43.210;27.914;2022-07-04T12:15:46;101297.69;;;28.52;44.39
63204;BME280;49297;43.210;27.914;2022-07-04T12:18:27;101292.22;;;28.63;44.04
63204;BME280;49297;43.210;27.914;2022-07-04T12:20:55;101287.16;;;28.55;44.64
63204;BME280;49297;43.210;27.914;2022-07-04T12:23:22;101292.69;;;28.60;43.29
63204;BME280;49297;43.210;27.914;2022-07-04T12:25:51;101289.41;;;28.58;45.00
63204;BME280;49297;43.210;27.914;2022-07-04T12:28:18;101283.63;;;28.55;45.42
63204;BME280;49297;43.210;27.914;2022-07-04T12:33:28;101276.38;;;28.60;44.91
63204;BME280;49297;43.210;27.914;2022-07-04T12:35:58;101278.38;;;28.65;45.44
63204;BME280;49297;43.210;27.914;2022-07-04T12:41:01;101281.09;;;28.65;45.63
63204;BME280;49297;43.210;27.914;2022-07-04T12:46:13;101279.03;;;28.72;45.58
63204;BME280;49297;43.210;27.914;2022-07-04T12:48:41;101283.28;;;28.68;45.35
63204;BME280;49297;43.210;27.914;2022-07-04T12:51:21;101277.59;;;28.70;44.77
63204;BME280;49297;43.210;27.914;2022-07-04T12:53:50;101272.06;;;28.64;44.72
63204;BME280;49297;43.210;27.914;2022-07-04T12:58:59;101281.66;;;28.67;45.13
63204;BME280;49297;43.210;27.914;2022-07-04T13:01:24;101283.97;;;28.75;44.80
63204;BME280;49297;43.210;27.914;2022-07-04T13:03:50;101283.28;;;28.68;44.48
63204;BME280;49297;43.210;27.914;2022-07-04T13:06:17;101277.47;;;28.76;44.42
63204;BME280;49297;43.210;27.914;2022-07-04T13:08:43;101277.66;;;28.86;43.82
63204;BME280;49297;43.210;27.914;2022-07-04T13:11:09;101281.75;;;28.89;44.66
63204;BME280;49297;43.210;27.914;2022-07-04T13:13:54;101273.69;;;28.94;43.63